createdAt,value
2018-11-07T00:01:40.765Z,14.33
2018-11-07T00:04:07.819Z,13.70
2018-11-07T00:06:35.172Z,13.27
2018-11-07T00:09:02.219Z,13.70
2018-11-07T00:11:29.296Z,13.70
2018-11-07T00:13:56.768Z,13.47
2018-11-07T00:16:23.979Z,13.40
2018-11-07T00:18:50.926Z,13.07
2018-11-07T00:21:17.974Z,13.57
2018-11-07T00:23:45.028Z,13.60
2018-11-07T00:26:12.097Z,14.50
2018-11-07T00:28:39.021Z,14.40
2018-11-07T00:31:06.067Z,13.97
2018-11-07T00:33:33.112Z,13.80
2018-11-07T00:36:00.172Z,13.90
2018-11-07T00:38:27.625Z,13.83
2018-11-07T00:40:54.670Z,14.10
2018-11-07T00:43:21.720Z,14.47
2018-11-07T00:45:48.971Z,14.07
2018-11-07T00:48:16.021Z,14.33
2018-11-07T00:50:43.075Z,13.43
2018-11-07T00:53:10.016Z,12.77
2018-11-07T00:55:37.069Z,13.70
2018-11-07T00:58:04.136Z,15.00
2018-11-07T01:00:31.165Z,14.77
2018-11-07T01:02:58.217Z,14.30
2018-11-07T01:05:25.260Z,14.70
2018-11-07T01:07:52.309Z,13.73
2018-11-07T01:10:19.362Z,14.03
2018-11-07T01:12:46.404Z,13.93
2018-11-07T01:15:13.358Z,13.13
2018-11-07T01:17:40.398Z,13.27
2018-11-07T01:20:07.447Z,13.40
2018-11-07T01:22:34.501Z,13.37
2018-11-07T01:25:01.545Z,14.23
2018-11-07T01:27:28.496Z,13.40
2018-11-07T01:29:55.539Z,13.13
2018-11-07T01:32:22.588Z,13.80
2018-11-07T01:34:49.642Z,13.80
2018-11-07T01:37:16.684Z,12.40
2018-11-07T01:39:43.734Z,12.37
2018-11-07T01:42:10.882Z,13.37
2018-11-07T01:44:37.830Z,14.07
2018-11-07T01:47:04.883Z,13.20
2018-11-07T01:49:31.935Z,13.20
2018-11-07T01:52:00.512Z,13.07
2018-11-07T01:54:27.560Z,12.73
2018-11-07T01:56:54.613Z,12.97
2018-11-07T01:59:22.786Z,14.60
2018-11-07T02:01:49.841Z,16.07
2018-11-07T02:04:16.881Z,13.77
2018-11-07T02:06:43.930Z,12.07
2018-11-07T02:09:10.984Z,13.07
2018-11-07T02:11:38.028Z,12.30
2018-11-07T02:14:05.338Z,12.33
2018-11-07T02:16:32.328Z,11.93
2018-11-07T02:18:59.377Z,12.13
2018-11-07T02:21:27.145Z,14.07
2018-11-07T02:23:54.198Z,12.63
2018-11-07T02:26:21.299Z,11.93
2018-11-07T02:28:48.595Z,12.87
2018-11-07T02:31:15.650Z,12.70
2018-11-07T02:33:42.693Z,12.97
2018-11-07T02:36:09.741Z,12.93
2018-11-07T02:38:36.797Z,13.13
2018-11-07T02:41:03.839Z,14.10
2018-11-07T02:43:30.890Z,14.20
2018-11-07T02:45:57.942Z,14.10
2018-11-07T02:48:24.985Z,14.17
2018-11-07T02:50:52.034Z,13.93
2018-11-07T02:53:19.098Z,13.80
2018-11-07T02:55:46.085Z,13.70
2018-11-07T02:58:13.083Z,13.40
2018-11-07T03:00:40.127Z,15.07
2018-11-07T03:03:07.175Z,14.30
2018-11-07T03:05:34.227Z,14.03
2018-11-07T03:08:01.271Z,14.47
2018-11-07T03:10:28.377Z,14.50
2018-11-07T03:12:55.374Z,13.97
2018-11-07T03:15:22.321Z,14.00
2018-11-07T03:17:49.369Z,14.07
2018-11-07T03:20:16.413Z,14.07
2018-11-07T03:22:43.460Z,14.70
2018-11-07T03:25:10.520Z,14.43
2018-11-07T03:27:37.557Z,13.30
2018-11-07T03:30:04.607Z,14.53
2018-11-07T03:32:31.663Z,13.37
2018-11-07T03:34:58.703Z,14.40
2018-11-07T03:37:26.271Z,15.33
2018-11-07T03:39:53.277Z,15.97
2018-11-07T03:42:20.362Z,15.47
2018-11-07T03:44:47.516Z,15.30
2018-11-07T03:47:34.377Z,14.77
2018-11-07T03:50:22.251Z,14.40
2018-11-07T03:52:49.313Z,14.43
2018-11-07T03:55:16.541Z,14.33
2018-11-07T03:57:43.584Z,14.80
2018-11-07T04:00:10.627Z,14.80
2018-11-07T04:02:38.346Z,14.33
2018-11-07T04:05:05.341Z,15.07
2018-11-07T04:07:32.387Z,15.77
2018-11-07T04:09:59.748Z,16.10
2018-11-07T04:12:26.792Z,15.47
2018-11-07T04:14:53.838Z,13.97
2018-11-07T04:17:21.093Z,13.90
2018-11-07T04:19:48.079Z,14.73
2018-11-07T04:22:15.088Z,14.50
2018-11-07T04:24:42.092Z,14.60
2018-11-07T04:27:09.082Z,13.70
2018-11-07T04:29:36.130Z,13.90
2018-11-07T04:32:03.124Z,13.33
2018-11-07T04:34:30.125Z,12.83
2018-11-07T04:36:57.178Z,13.63
2018-11-07T04:39:24.224Z,12.93
2018-11-07T04:41:51.271Z,12.87
2018-11-07T04:44:18.328Z,12.73
2018-11-07T04:46:45.675Z,12.50
2018-11-07T04:49:12.630Z,12.17
2018-11-07T04:51:39.670Z,13.33
2018-11-07T04:54:07.174Z,13.57
2018-11-07T04:56:36.121Z,12.17
2018-11-07T04:59:03.173Z,13.43
2018-11-07T05:01:30.843Z,12.87
2018-11-07T05:03:57.883Z,13.00
2018-11-07T05:06:24.769Z,12.83
2018-11-07T05:08:51.775Z,12.57
2018-11-07T05:11:18.829Z,11.83
2018-11-07T05:13:45.874Z,11.87
2018-11-07T05:16:12.920Z,12.47
2018-11-07T05:18:39.976Z,12.40
2018-11-07T05:21:08.147Z,12.10
2018-11-07T05:23:35.199Z,12.87
2018-11-07T05:26:03.106Z,11.77
2018-11-07T05:28:30.114Z,11.87
2018-11-07T05:30:57.159Z,11.50
2018-11-07T05:33:24.416Z,12.37
2018-11-07T05:35:51.459Z,11.93
2018-11-07T05:38:18.508Z,11.50
2018-11-07T05:40:45.913Z,12.27
2018-11-07T05:43:12.912Z,11.73
2018-11-07T05:45:39.961Z,12.37
2018-11-07T05:48:07.521Z,12.57
2018-11-07T05:50:34.571Z,12.63
2018-11-07T05:53:01.625Z,13.17
2018-11-07T05:55:28.973Z,11.17
2018-11-07T05:57:55.927Z,11.63
2018-11-07T06:00:22.969Z,12.10
2018-11-07T06:02:51.353Z,12.30
2018-11-07T06:05:18.398Z,12.87
2018-11-07T06:07:46.879Z,13.90
2018-11-07T06:10:13.930Z,14.10
2018-11-07T06:12:40.874Z,14.73
2018-11-07T06:15:07.923Z,13.97
2018-11-07T06:17:34.979Z,13.87
2018-11-07T06:20:02.021Z,14.20
2018-11-07T06:22:29.071Z,15.23
2018-11-07T06:24:56.198Z,14.07
2018-11-07T06:27:23.273Z,12.30
2018-11-07T06:29:50.317Z,14.10
2018-11-07T06:32:17.366Z,13.90
2018-11-07T06:34:44.420Z,12.23
2018-11-07T06:37:11.570Z,13.87
2018-11-07T06:39:38.614Z,14.13
2018-11-07T06:42:05.661Z,13.93
2018-11-07T06:44:32.681Z,14.50
2018-11-07T06:46:59.761Z,15.90
2018-11-07T06:49:26.814Z,16.13
2018-11-07T06:51:53.864Z,15.97
2018-11-07T06:54:20.907Z,17.00
2018-11-07T06:56:47.957Z,17.50
2018-11-07T06:59:15.360Z,17.67
2018-11-07T07:01:42.362Z,17.40
2018-11-07T07:04:09.408Z,19.17
2018-11-07T07:06:39.845Z,18.80
2018-11-07T07:09:06.915Z,19.13
2018-11-07T07:11:33.932Z,20.03
2018-11-07T07:14:00.985Z,20.03
2018-11-07T07:16:28.073Z,19.90
2018-11-07T07:18:56.823Z,18.93
2018-11-07T07:21:23.866Z,17.97
2018-11-07T07:23:50.921Z,18.67
2018-11-07T07:26:17.970Z,19.97
2018-11-07T07:28:45.013Z,19.90
2018-11-07T07:31:12.579Z,20.13
2018-11-07T07:33:39.689Z,18.93
2018-11-07T07:36:06.671Z,18.73
2018-11-07T07:38:33.725Z,16.77
2018-11-07T07:41:00.768Z,16.60
2018-11-07T07:43:28.169Z,17.03
2018-11-07T07:45:55.177Z,16.17
2018-11-07T07:48:22.168Z,16.53
2018-11-07T07:50:50.097Z,15.73
2018-11-07T07:53:17.202Z,16.77
2018-11-07T07:55:44.185Z,18.13
2018-11-07T07:58:11.239Z,18.00
2018-11-07T08:00:38.281Z,17.67
2018-11-07T08:03:05.331Z,16.58
2018-11-07T08:05:32.385Z,15.15
2018-11-07T08:07:59.375Z,16.20
2018-11-07T08:10:26.380Z,16.73
2018-11-07T08:12:53.423Z,15.25
2018-11-07T08:15:20.479Z,16.45
2018-11-07T08:17:47.419Z,16.12
2018-11-07T08:20:14.467Z,13.38
2018-11-07T08:22:41.520Z,12.75
2018-11-07T08:25:08.563Z,13.75
2018-11-07T08:27:35.612Z,13.88
2018-11-07T08:30:02.606Z,14.00
2018-11-07T08:32:29.608Z,12.63
2018-11-07T08:34:56.594Z,13.85
2018-11-07T08:37:23.602Z,13.32
2018-11-07T08:39:50.656Z,10.02
2018-11-07T08:42:17.721Z,10.90
2018-11-07T08:44:44.748Z,11.40
2018-11-07T08:47:11.801Z,11.55
2018-11-07T08:49:40.074Z,11.80
2018-11-07T08:52:07.132Z,11.27
2018-11-07T08:54:34.177Z,11.63
2018-11-07T08:57:01.221Z,11.45
2018-11-07T08:59:29.190Z,11.82
2018-11-07T09:01:56.260Z,10.77
2018-11-07T09:04:23.288Z,11.18
2018-11-07T09:06:50.853Z,9.68
2018-11-07T09:09:17.897Z,11.35
2018-11-07T09:11:44.945Z,11.60
2018-11-07T09:14:14.366Z,10.95
2018-11-07T09:16:41.396Z,10.02
2018-11-07T09:19:08.453Z,11.45
2018-11-07T09:21:37.594Z,9.13
2018-11-07T09:24:04.597Z,10.10
2018-11-07T09:26:31.641Z,9.85
2018-11-07T09:28:58.692Z,10.43
2018-11-07T09:31:25.747Z,10.00
2018-11-07T09:33:52.787Z,10.70
2018-11-07T09:36:19.834Z,10.80
2018-11-07T09:38:49.297Z,11.12
2018-11-07T09:41:16.291Z,10.77
2018-11-07T09:43:43.851Z,10.68
2018-11-07T09:46:12.952Z,10.02
2018-11-07T09:48:39.994Z,10.90
2018-11-07T09:51:07.045Z,9.80
2018-11-07T09:53:34.146Z,9.80
2018-11-07T09:56:01.141Z,11.27
2018-11-07T09:58:28.494Z,9.95
2018-11-07T10:00:55.552Z,9.40
2018-11-07T10:03:22.489Z,10.63
2018-11-07T10:05:49.543Z,9.82
2018-11-07T10:08:16.585Z,10.45
2018-11-07T10:10:43.541Z,9.90
2018-11-07T10:13:10.582Z,9.82
2018-11-07T10:15:37.635Z,9.52
2018-11-07T10:18:04.683Z,9.93
2018-11-07T10:20:31.779Z,8.95
2018-11-07T10:22:58.778Z,9.85
2018-11-07T10:25:25.831Z,8.75
2018-11-07T10:27:53.760Z,8.98
2018-11-07T10:30:20.605Z,9.77
2018-11-07T10:32:47.427Z,8.00
2018-11-07T10:35:14.941Z,9.20
2018-11-07T10:37:42.026Z,9.00
2018-11-07T10:40:09.549Z,8.70
2018-11-07T10:42:36.598Z,9.73
2018-11-07T10:45:03.651Z,9.57
2018-11-07T10:47:31.111Z,8.48
2018-11-07T10:49:58.154Z,9.35
2018-11-07T10:52:25.203Z,9.10
2018-11-07T10:54:52.563Z,8.18
2018-11-07T10:57:19.606Z,7.75
2018-11-07T10:59:46.656Z,8.50
2018-11-07T11:02:14.016Z,9.23
2018-11-07T11:04:41.008Z,8.80
2018-11-07T11:07:08.015Z,8.90
2018-11-07T11:09:35.567Z,8.52
2018-11-07T11:12:02.621Z,8.48
2018-11-07T11:14:29.667Z,9.15
2018-11-07T11:16:57.051Z,8.60
2018-11-07T11:19:24.073Z,9.43
2018-11-07T11:21:52.962Z,9.25
2018-11-07T11:24:20.009Z,9.02
2018-11-07T11:26:48.696Z,8.77
2018-11-07T11:29:15.950Z,8.88
2018-11-07T11:31:42.999Z,9.13
2018-11-07T11:34:10.068Z,8.50
2018-11-07T11:36:38.431Z,8.68
2018-11-07T11:39:05.475Z,9.20
2018-11-07T11:41:32.474Z,8.13
2018-11-07T11:43:59.471Z,8.73
2018-11-07T11:46:26.518Z,8.02
2018-11-07T11:48:53.479Z,7.47
2018-11-07T11:51:20.514Z,8.43
2018-11-07T11:53:47.509Z,9.45
2018-11-07T11:56:14.611Z,9.35
2018-11-07T11:58:42.077Z,7.70
2018-11-07T12:01:09.117Z,8.15
2018-11-07T12:03:36.171Z,8.15
2018-11-07T12:06:03.217Z,8.57
2018-11-07T12:08:30.364Z,8.52
2018-11-07T12:10:57.316Z,8.48
2018-11-07T12:13:24.393Z,8.50
2018-11-07T12:15:51.410Z,7.97
2018-11-07T12:18:18.468Z,8.27
2018-11-07T12:20:45.404Z,7.70
2018-11-07T12:23:12.459Z,7.80
2018-11-07T12:25:42.267Z,7.72
2018-11-07T12:28:09.315Z,7.28
2018-11-07T12:30:36.369Z,7.85
2018-11-07T12:33:04.134Z,7.28
2018-11-07T12:35:31.178Z,6.97
2018-11-07T12:37:58.230Z,6.75
2018-11-07T12:40:25.282Z,7.53
2018-11-07T12:42:52.767Z,7.72
2018-11-07T12:45:19.892Z,7.35
2018-11-07T12:47:46.939Z,8.73
2018-11-07T12:50:14.026Z,9.75
2018-11-07T12:52:41.133Z,9.98
2018-11-07T12:55:08.192Z,10.63
2018-11-07T12:57:36.225Z,10.20
2018-11-07T13:00:03.200Z,9.45
2018-11-07T13:02:30.254Z,9.95
2018-11-07T13:04:57.297Z,10.25
2018-11-07T13:07:27.936Z,9.90
2018-11-07T13:09:54.977Z,9.10
2018-11-07T13:12:22.544Z,10.00
2018-11-07T13:14:49.594Z,10.70
2018-11-07T13:17:16.636Z,5.57
2018-11-07T13:19:43.582Z,2.78
2018-11-07T13:22:11.700Z,5.37
2018-11-07T13:24:38.703Z,7.00
2018-11-07T13:27:05.759Z,7.62
2018-11-07T13:29:32.802Z,7.87
2018-11-07T13:31:59.850Z,8.38
2018-11-07T13:34:26.930Z,7.95
2018-11-07T13:36:54.092Z,7.60
2018-11-07T13:39:21.627Z,9.70
2018-11-07T13:41:48.454Z,8.45
2018-11-07T13:44:15.508Z,9.60
2018-11-07T13:46:42.552Z,7.82
2018-11-07T13:49:09.600Z,7.00
2018-11-07T13:51:36.654Z,7.80
2018-11-07T13:54:03.704Z,8.32
2018-11-07T13:56:30.746Z,7.93
2018-11-07T13:58:57.802Z,8.05
2018-11-07T14:01:24.791Z,8.73
2018-11-07T14:03:53.428Z,7.93
2018-11-07T14:06:20.481Z,8.57
2018-11-07T14:08:47.474Z,9.15
2018-11-07T14:11:14.478Z,8.90
2018-11-07T14:13:42.597Z,9.55
2018-11-07T14:16:09.615Z,7.57
2018-11-07T14:18:36.642Z,7.32
2018-11-07T14:21:05.124Z,7.75
2018-11-07T14:23:32.172Z,6.87
2018-11-07T14:25:59.074Z,7.50
2018-11-07T14:28:26.090Z,7.18
2018-11-07T14:30:53.770Z,6.28
2018-11-07T14:33:20.879Z,7.85
2018-11-07T14:35:47.928Z,7.25
2018-11-07T14:38:14.982Z,6.43
2018-11-07T14:40:42.025Z,7.05
2018-11-07T14:43:09.074Z,7.90
2018-11-07T14:45:36.127Z,7.75
2018-11-07T14:48:03.171Z,5.78
2018-11-07T14:50:30.122Z,5.93
2018-11-07T14:52:57.166Z,5.30
2018-11-07T14:55:24.213Z,6.03
2018-11-07T14:57:51.267Z,6.37
2018-11-07T15:00:18.314Z,6.43
2018-11-07T15:02:45.392Z,6.40
2018-11-07T15:05:13.125Z,6.20
2018-11-07T15:07:41.505Z,5.25
2018-11-07T15:10:08.559Z,5.28
2018-11-07T15:12:35.604Z,5.18
2018-11-07T15:15:02.652Z,5.03
2018-11-07T15:17:29.705Z,5.25
2018-11-07T15:19:56.748Z,5.40
2018-11-07T15:22:23.798Z,4.97
2018-11-07T15:24:50.869Z,3.90
2018-11-07T15:27:17.894Z,4.40
2018-11-07T15:29:44.943Z,4.82
2018-11-07T15:32:12.710Z,5.35
2018-11-07T15:34:39.764Z,5.30
2018-11-07T15:37:08.041Z,4.80
2018-11-07T15:39:35.102Z,4.90
2018-11-07T15:42:02.139Z,5.20
2018-11-07T15:44:29.185Z,5.68
2018-11-07T15:46:56.232Z,6.32
2018-11-07T15:49:23.288Z,6.10
2018-11-07T15:51:50.352Z,7.60
2018-11-07T15:54:17.374Z,7.57
2018-11-07T15:56:44.427Z,7.57
2018-11-07T15:59:12.906Z,8.55
2018-11-07T16:01:39.853Z,7.32
2018-11-07T16:04:06.900Z,7.50
2018-11-07T16:06:34.360Z,8.38
2018-11-07T16:09:01.414Z,13.35
2018-11-07T16:11:28.458Z,8.32
2018-11-07T16:13:55.861Z,10.18
2018-11-07T16:16:22.865Z,8.40
2018-11-07T16:18:49.909Z,9.52
2018-11-07T16:21:17.367Z,9.65
2018-11-07T16:23:44.417Z,8.27
2018-11-07T16:26:11.470Z,8.48
2018-11-07T16:28:38.965Z,10.25
2018-11-07T16:31:06.484Z,10.57
2018-11-07T16:33:33.536Z,7.95
2018-11-07T16:36:01.043Z,9.98
2018-11-07T16:38:28.039Z,12.20
2018-11-07T16:40:55.159Z,14.43
2018-11-07T16:43:22.141Z,13.98
2018-11-07T16:45:49.185Z,16.92
2018-11-07T16:48:16.271Z,15.18
2018-11-07T16:50:43.295Z,12.10
2018-11-07T16:53:11.150Z,11.68
2018-11-07T16:55:38.211Z,10.20
2018-11-07T16:58:05.248Z,11.30
2018-11-07T17:00:32.297Z,21.27
2018-11-07T17:02:59.349Z,17.67
2018-11-07T17:05:26.393Z,16.87
2018-11-07T17:07:53.442Z,14.27
2018-11-07T17:10:22.174Z,15.70
2018-11-07T17:12:49.586Z,15.50
2018-11-07T17:15:16.643Z,13.90
2018-11-07T17:17:44.298Z,12.77
2018-11-07T17:20:11.350Z,12.95
2018-11-07T17:22:39.214Z,13.23
2018-11-07T17:25:06.264Z,14.98
2018-11-07T17:27:33.317Z,16.48
2018-11-07T17:30:00.670Z,39.28
2018-11-07T17:32:27.826Z,14.98
2018-11-07T17:34:55.640Z,13.35
2018-11-07T17:37:22.785Z,14.73
2018-11-07T17:39:50.194Z,14.45
2018-11-07T17:42:17.242Z,14.18
2018-11-07T17:44:44.395Z,36.17
2018-11-07T17:47:11.647Z,19.73
2018-11-07T17:49:38.697Z,17.70
2018-11-07T17:52:10.144Z,15.13
2018-11-07T17:54:37.200Z,13.52
2018-11-07T17:57:04.351Z,16.12
2018-11-07T17:59:31.395Z,17.15
2018-11-07T18:01:58.445Z,17.37
2018-11-07T18:04:25.696Z,16.35
2018-11-07T18:06:52.744Z,14.70
2018-11-07T18:09:21.643Z,17.37
2018-11-07T18:11:48.685Z,16.87
2018-11-07T18:14:16.042Z,15.75
2018-11-07T18:16:43.095Z,16.90
2018-11-07T18:19:10.149Z,16.30
2018-11-07T18:21:37.597Z,17.02
2018-11-07T18:24:05.163Z,15.95
2018-11-07T18:26:32.208Z,16.10
2018-11-07T18:28:59.259Z,17.27
2018-11-07T18:31:26.310Z,16.35
2018-11-07T18:33:53.769Z,17.70
2018-11-07T18:36:20.815Z,18.48
2018-11-07T18:38:47.811Z,18.83
2018-11-07T18:41:14.832Z,14.45
2018-11-07T18:43:43.186Z,14.75
2018-11-07T18:46:10.234Z,20.33
2018-11-07T18:48:37.292Z,20.90
2018-11-07T18:51:04.330Z,22.90
2018-11-07T18:53:32.350Z,25.52
2018-11-07T18:55:59.358Z,17.62
2018-11-07T18:58:26.665Z,19.37
2018-11-07T19:00:53.657Z,35.80
2018-11-07T19:03:20.700Z,39.20
2018-11-07T19:05:48.574Z,41.63
2018-11-07T19:08:15.616Z,29.17
2018-11-07T19:10:42.786Z,17.35
2018-11-07T19:13:11.780Z,16.73
2018-11-07T19:15:39.424Z,19.33
2018-11-07T19:18:06.375Z,18.30
2018-11-07T19:20:33.433Z,18.58
2018-11-07T19:23:00.473Z,18.33
2018-11-07T19:25:27.517Z,16.73
2018-11-07T19:27:56.512Z,27.00
2018-11-07T19:30:24.892Z,40.22
2018-11-07T19:32:51.956Z,30.42
2018-11-07T19:35:19.003Z,17.02
2018-11-07T19:37:46.959Z,17.25
2018-11-07T19:40:17.357Z,17.73
2018-11-07T19:42:44.640Z,21.67
2018-11-07T19:45:14.509Z,25.47
2018-11-07T19:47:43.767Z,25.90
2018-11-07T19:50:14.067Z,28.00
2018-11-07T19:52:45.209Z,33.97
2018-11-07T19:55:12.419Z,30.37
2018-11-07T19:57:39.836Z,26.45
2018-11-07T20:00:06.882Z,21.87
2018-11-07T20:02:33.937Z,19.40
2018-11-07T20:05:04.976Z,21.80
2018-11-07T20:07:32.330Z,24.17
2018-11-07T20:09:59.340Z,35.53
2018-11-07T20:12:26.426Z,23.13
2018-11-07T20:14:53.686Z,40.73
2018-11-07T20:17:22.177Z,23.00
2018-11-07T20:19:49.215Z,23.97
2018-11-07T20:22:16.565Z,20.17
2018-11-07T20:24:43.615Z,19.60
2018-11-07T20:27:10.767Z,18.60
2018-11-07T20:29:38.634Z,23.13
2018-11-07T20:32:05.631Z,22.73
2018-11-07T20:34:32.737Z,19.27
2018-11-07T20:37:00.209Z,19.17
2018-11-07T20:39:27.193Z,21.20
2018-11-07T20:41:54.430Z,17.30
2018-11-07T20:44:22.352Z,18.30
2018-11-07T20:46:52.372Z,20.40
2018-11-07T20:49:19.417Z,27.30
2018-11-07T20:51:47.185Z,37.00
2018-11-07T20:54:14.230Z,26.97
2018-11-07T20:56:41.303Z,23.57
2018-11-07T20:59:09.663Z,18.03
2018-11-07T21:01:37.176Z,19.67
2018-11-07T21:04:04.168Z,22.83
2018-11-07T21:06:31.319Z,22.37
2018-11-07T21:08:58.467Z,23.30
2018-11-07T21:11:25.517Z,25.33
2018-11-07T21:13:53.491Z,23.90
2018-11-07T21:16:20.433Z,24.77
2018-11-07T21:18:47.487Z,20.73
2018-11-07T21:21:14.529Z,28.23
2018-11-07T21:23:41.578Z,28.77
2018-11-07T21:26:08.632Z,32.57
2018-11-07T21:28:35.674Z,30.43
2018-11-07T21:31:02.803Z,27.90
2018-11-07T21:33:30.084Z,30.83
2018-11-07T21:35:57.129Z,30.43
2018-11-07T21:38:24.177Z,31.20
2018-11-07T21:40:51.230Z,31.03
2018-11-07T21:43:18.274Z,30.20
2018-11-07T21:45:45.322Z,29.63
2018-11-07T21:48:12.376Z,31.13
2018-11-07T21:50:39.419Z,32.37
2018-11-07T21:53:06.469Z,31.47
2018-11-07T21:55:33.522Z,29.83
2018-11-07T21:58:00.565Z,30.27
2018-11-07T22:00:27.836Z,29.63
2018-11-07T22:02:54.942Z,28.27
2018-11-07T22:05:22.126Z,27.83
2018-11-07T22:07:49.170Z,28.30
2018-11-07T22:10:16.217Z,26.73
2018-11-07T22:12:43.272Z,27.53
2018-11-07T22:15:10.520Z,25.87
2018-11-07T22:17:37.580Z,26.60
2018-11-07T22:20:04.617Z,25.40
2018-11-07T22:22:31.665Z,26.17
2018-11-07T22:24:58.721Z,23.77
2018-11-07T22:27:26.581Z,24.57
2018-11-07T22:29:53.528Z,23.17
2018-11-07T22:32:20.579Z,24.10
2018-11-07T22:34:47.630Z,24.67
2018-11-07T22:37:14.674Z,23.77
2018-11-07T22:39:41.723Z,23.13
2018-11-07T22:42:08.775Z,22.80
2018-11-07T22:44:35.819Z,23.43
2018-11-07T22:47:02.869Z,22.20
2018-11-07T22:49:29.921Z,22.40
2018-11-07T22:51:57.688Z,20.90
2018-11-07T22:54:24.730Z,18.33
2018-11-07T22:56:51.779Z,18.03
2018-11-07T22:59:20.372Z,18.53
2018-11-07T23:01:47.413Z,20.27
2018-11-07T23:04:14.462Z,21.37
2018-11-07T23:06:43.150Z,20.03
2018-11-07T23:09:10.202Z,19.03
2018-11-07T23:11:37.245Z,20.70
2018-11-07T23:14:04.909Z,22.13
2018-11-07T23:16:31.964Z,20.90
2018-11-07T23:18:59.006Z,20.83
2018-11-07T23:21:26.055Z,23.57
2018-11-07T23:23:53.108Z,20.07
2018-11-07T23:26:20.151Z,20.07
2018-11-07T23:28:47.866Z,20.30
2018-11-07T23:31:14.871Z,19.30
2018-11-07T23:33:41.814Z,17.93
2018-11-07T23:36:09.122Z,19.23
2018-11-07T23:38:38.675Z,19.00
2018-11-07T23:41:24.131Z,18.87
2018-11-07T23:44:09.176Z,20.03
2018-11-07T23:46:36.179Z,18.77
2018-11-07T23:49:03.115Z,19.33
2018-11-07T23:51:30.061Z,19.97
2018-11-07T23:53:57.114Z,21.07
2018-11-07T23:56:24.164Z,20.67
2018-11-07T23:58:51.207Z,18.97
